Accueil
METAR-TAF:

METAR-TAF

Aéroports :

Aéroport de Cordoue

Cordoue, Espagne

latitude: 37-51N, longitude: 004-51W, altitude: 90 m

Observation

Le bulletin a été fait il y a 18 minutes, à 15:30 UTC
Vent 7 kt de nord-ouest, variant entre ouest et nord
Température 18°C
Humidité 42%
Pression 1020 hPa
Visibilité 10 km ou plus
pas de nuages en-dessous de 1500 mètres et pas de cumulonimbus.

METAR: LEBA 261530Z 32007KT 270V350 CAVOK 18/05 Q1020

Heure: 16:48 (15:48 UTC)

Prévision

Le bulletin a été fait il y a 1 heure et 48 minutes, à 14:00 UTC
Prévision valable du 26 à 15 UTC au 27 à 15 UTC
Vent 3 kt de direction variable
Visibilité 10 km ou plus
pas de nuages en-dessous de 1500 mètres et pas de cumulonimbus.

TAF: LEBA 261400Z 2615/2715 VRB03KT CAVOK TX20/2615Z TN06/2706Z

Observations et prévisions météorologiques de plus de 4000 aéroports (messages METAR et TAF).

Les stations disponibles sont représentées par des disques jaunes et rouges sur la carte.

Passer la souris dessus pour voir le nom de la station.

Cliquer dessus pour voir les observations et prévisions météorologiques.

Pour changer de carte: cliquez sur les boutons verts avec une croix noire pour zoomer, sur le bouton vert avec un tiret pour effectuer un zoom arrière, ou sur les flèches vertes pour les cartes adjacentes.


METAR-TAF: